Friday, October 24, 2014
07:07 UTC
  |  Log In   |  Register Free
Airport Search:

Corpus Christi International Airport
(KCRP)

FAA data valid effective September 18, 2014 - November 13, 2014 (unless otherwise noted).

 
 
 
 
 
 
 
 
 
 
 
 
 
 

Current Aviation Weather for Corpus Christi International Airport (KCRP)

The most recent METAR observation for KCRP was updated at: 0608
METAR Summary (Translated METAR)
KCRP
240551Z 00000KT 10SM FEW140 19/18 A3008 RMK AO2 SLP186 T01940178 10239 20194 402830189 50000
KRBO
232350Z AUTO 11007KT 10SM CLR 26/18 A3005 RMK AO2 T02550177 10285 20255
(10.1 nm NW from KCRP)
KNGP
240556Z AUTO 09003KT 10SM CLR 21/18 A3008 RMK AO2 SLP185 T02060183 10239 20206 402720206 55001
(12.1 nm SE from KCRP)
TAF Summary (Translated TAF)
KCRP
240522Z 2406/2506 06006KT P6SM FEW120 FM242100 11009KT P6SM FEW050
KNGP
(12.1 nm SE from KCRP)
2323/2423 09010KT 9999 FEW020 FEW250 542709 543605 QNH3002INS FM240300 08006KT 9999 FEW020 542709 543605 QNH3006INS TEMPO 2403/2409 VRB04KT FM240900 02006KT 9999 FEW020 542709 543605 QNH3007INS FM241900 05008KT 9999 FEW025 500000 QNH3005INS AUTOMATED SENSOR METWATCH 2404 TIL 2411 T19/2412Z T28/2421Z FN20044
  Airport Weather Conditions for KCRP

 Current Weather at CRP
67° F
A Few Clouds
North winds at 0.0 mph
CRP NOAA Radar

Pressure: 30.08 in
Humidity: 91%
Wind: Calm
Dew Point: 64.0°F
Visibility: 10.00 mi


Airport Weather Forecast for KCRP

Translated METAR and TAF for KCRP
Translated METAR for KCRP (0702 UTC 24 October 2014)
found at http://aviationweather.gov/adds/metars/
 
METAR text: KCRP 240651Z 00000KT 10SM CLR 19/18 A3008 RMK AO2 SLP185 T01940178
Conditions at: KCRP (CORPUS CHRISTI , TX, US) observed 0651 UTC 24 October 2014
Temperature: 19.4°C (67°F)
Dewpoint: 17.8°C (64°F) [RH = 90%]
Pressure (altimeter): 30.08 inches Hg (1018.7 mb)
[Sea-level pressure: 1018.5 mb]
Winds: calm
Visibility: 10 or more miles (16+ km)
Ceiling: at least 12,000 feet AGL
Clouds: sky clear below 12,000 feet AGL
Weather: no significant weather observed at this time
Translated TAF for KCRP
Forecast for: KCRP (CORPUS CHRISTI , TX, US)
TAF Text: KCRP 240522Z 2406/2506 06006KT P6SM FEW120
Forecast period: 0600 to 2100 UTC 24 October 2014
Forecast type: FROM: standard forecast or significant change
Winds: from the ENE (60 degrees) at 7 MPH (6 knots; 3.1 m/s)
Visibility: 6 or more miles (10+ km)
Clouds: few clouds at 12000 feet AGL
Weather: no significant weather forecast for this period
TAF Text: FM242100 11009KT P6SM FEW050
Forecast period: 2100 UTC 24 October 2014 to 0600 UTC 25 October 2014
Forecast type: FROM: standard forecast or significant change
Winds: from the ESE (110 degrees) at 10 MPH (9 knots; 4.7 m/s)
Visibility: 6 or more miles (10+ km)
Clouds: few clouds at 5000 feet AGL
Weather: no significant weather forecast for this period

Find All Airport Services Find A Hotel Find A Rental Car Find A Golf Course Find A Restaurant $100 Hamburger



FBO's on the Field
FBO Company Facility Photos Services Transportation Aviation Fuel Prices: Prices include tax
Catering Weather Repair Courtesy Rental Type 100LL JetA JetA+ MOGAS 8087
 
Atlantic Aviation

This FBO has not yet been rated
FS:Chevron
Last Updated: Oct-22
Login to update fuel prices
SS:
Contact Atlantic AviationMore FBO Information
 
Signature Flight Support

This FBO has not yet been rated
FS:Avfuel
Last Updated: Oct-23
Login to update fuel prices
SS:
Contact Signature Flight SupportMore FBO Information
 
Add another FBO Facility Photos Catering Weather Repair Courtesy Rental Type 100LL JetA JetA+ MOGAS 8087
Services Transportation Aviation Fuel Prices: Prices include tax


model-print
model-print
model-print
model-print